Time;durP1;ratioP1;P1;durP2;ratioP2;P2;SDS_P1;SDS_P2;PMS_P1;PMS_P2;Temp;Humidity;BMP_temperature;BMP_pressure;BME280_temperature;BME280_humidity;BME280_pressure;Samples;Min_cycle;Max_cycle;Signal;HPM_P1;HPM_P2
2021/09/09 00:01:59;;;;;;;3.90;2.28;;;435.50;1715.20;;;;;;5032657;28;20022;-78
2021/09/09 00:04:25;;;;;;;4.70;3.08;;;435.60;1715.20;;;;;;5032756;28;20037;-77
2021/09/09 00:06:51;;;;;;;5.53;3.35;;;435.60;1766.40;;;;;;5033150;28;20056;-78
2021/09/09 00:09:18;;;;;;;3.45;2.78;;;435.60;1766.40;;;;;;5034619;28;20025;-78
2021/09/09 00:11:43;;;;;;;5.15;2.47;;;435.60;1740.80;;;;;;5036285;28;20018;-78
2021/09/09 00:14:09;;;;;;;6.68;3.17;;;435.60;1715.20;;;;;;5036016;28;20025;-77
2021/09/09 00:16:35;;;;;;;4.07;2.20;;;435.60;1715.20;;;;;;5036303;28;20032;-79
2021/09/09 00:19:01;;;;;;;4.00;2.05;;;435.60;1689.60;;;;;;5035812;28;20033;-76
2021/09/09 00:21:28;;;;;;;3.95;2.50;;;435.40;1715.20;;;;;;5035922;28;20032;-79
2021/09/09 00:23:53;;;;;;;5.47;1.90;;;435.30;1715.20;;;;;;5035628;28;20021;-78
2021/09/09 00:26:19;;;;;;;3.47;2.42;;;435.30;1740.80;;;;;;5035934;28;20017;-79
2021/09/09 00:28:45;;;;;;;4.10;2.40;;;435.40;1740.80;;;;;;5036238;28;20124;-79
2021/09/09 00:31:10;;;;;;;3.85;2.78;;;435.30;1740.80;;;;;;5036111;28;20025;-78
2021/09/09 00:33:36;;;;;;;4.30;2.42;;;435.40;1740.80;;;;;;5035920;28;20049;-78
2021/09/09 00:36:02;;;;;;;3.97;2.53;;;435.50;1740.80;;;;;;5036400;28;20052;-77
2021/09/09 00:38:29;;;;;;;5.10;3.40;;;435.50;1740.80;;;;;;5036129;28;20041;-77
2021/09/09 00:40:55;;;;;;;3.25;2.35;;;435.60;1740.80;;;;;;5033457;28;20036;-77
2021/09/09 00:43:20;;;;;;;5.25;2.45;;;435.60;1740.80;;;;;;5031763;28;20022;-78
2021/09/09 00:45:54;;;;;;;3.67;2.60;;;435.60;1740.80;;;;;;5035893;28;20021;-77
2021/09/09 00:48:21;;;;;;;7.15;3.38;;;435.60;1740.80;;;;;;5036067;28;20033;-77
2021/09/09 00:50:48;;;;;;;4.53;2.58;;;435.60;1740.80;;;;;;5035939;28;20029;-78
2021/09/09 00:53:15;;;;;;;4.30;3.25;;;435.60;1740.80;;;;;;5035160;28;20130;-77
2021/09/09 00:55:41;;;;;;;6.88;3.10;;;435.60;1740.80;;;;;;5017622;28;20038;-75
2021/09/09 00:58:11;;;;;;;4.32;3.38;;;435.60;1740.80;;;;;;5035242;28;20025;-76
2021/09/09 01:00:38;;;;;;;4.30;2.67;;;435.70;1740.80;;;;;;5035376;28;20485;-79
2021/09/09 01:03:06;;;;;;;5.97;2.38;;;435.70;1740.80;;;;;;5036014;28;20087;-80
2021/09/09 01:05:38;;;;;;;3.85;2.42;;;435.70;1740.80;;;;;;5035818;28;20373;-77
2021/09/09 01:08:05;;;;;;;5.60;3.13;;;435.70;1740.80;;;;;;5017897;28;20025;-76
2021/09/09 01:10:33;;;;;;;5.50;3.00;;;435.70;1740.80;;;;;;5034405;28;20112;-78
2021/09/09 01:12:58;;;;;;;3.97;2.40;;;435.70;1715.20;;;;;;5035458;28;20116;-77
2021/09/09 01:15:24;;;;;;;4.28;2.45;;;435.70;1715.20;;;;;;5035505;28;20056;-75
2021/09/09 01:17:50;;;;;;;4.30;2.55;;;435.60;1740.80;;;;;;5035315;28;20033;-79
2021/09/09 01:20:17;;;;;;;3.85;2.42;;;435.60;1740.80;;;;;;5035069;28;20036;-79
2021/09/09 01:22:44;;;;;;;3.55;2.50;;;435.60;1740.80;;;;;;5035306;28;20018;-79
2021/09/09 01:25:11;;;;;;;4.75;2.75;;;435.60;1740.80;;;;;;5035016;28;20021;-78
2021/09/09 01:27:37;;;;;;;2.95;2.35;;;435.60;1740.80;;;;;;5035379;28;20022;-79
2021/09/09 01:30:04;;;;;;;3.92;2.38;;;435.60;1740.80;;;;;;5034920;28;20100;-78
2021/09/09 01:32:29;;;;;;;3.95;2.80;;;435.60;1740.80;;;;;;5034644;28;20036;-78
2021/09/09 01:34:55;;;;;;;6.57;2.55;;;435.60;1766.40;;;;;;5036333;28;20242;-77
2021/09/09 01:37:23;;;;;;;5.13;2.50;;;435.70;1740.80;;;;;;5038028;28;20452;-79
2021/09/09 01:39:48;;;;;;;5.32;2.47;;;435.60;1766.40;;;;;;5037661;28;20385;-79
2021/09/09 01:42:14;;;;;;;3.28;2.80;;;435.60;1766.40;;;;;;5037732;28;20022;-78
2021/09/09 01:44:41;;;;;;;5.55;2.30;;;435.70;1766.40;;;;;;5036345;28;20032;-78
2021/09/09 01:47:07;;;;;;;5.72;3.03;;;435.70;1766.40;;;;;;5035332;28;20504;-78
2021/09/09 01:49:33;;;;;;;4.45;2.45;;;435.60;1766.40;;;;;;5036016;28;20026;-78
2021/09/09 01:51:59;;;;;;;3.72;2.10;;;435.70;1740.80;;;;;;5035691;28;20505;-80
2021/09/09 01:54:24;;;;;;;3.83;2.22;;;435.70;1766.40;;;;;;5034784;28;20189;-79
2021/09/09 01:56:50;;;;;;;5.20;2.50;;;435.70;1766.40;;;;;;5035380;28;20428;-78
2021/09/09 01:59:16;;;;;;;4.32;2.20;;;435.70;1740.80;;;;;;5017843;28;20396;-79
2021/09/09 02:01:42;;;;;;;4.53;2.28;;;435.70;1740.80;;;;;;5035751;28;20022;-78
2021/09/09 02:04:09;;;;;;;4.80;2.95;;;435.70;1740.80;;;;;;5036384;28;20044;-80
2021/09/09 02:06:35;;;;;;;3.50;2.53;;;435.60;1766.40;;;;;;5031968;28;20029;-77
2021/09/09 02:09:02;;;;;;;3.65;2.10;;;435.70;1766.40;;;;;;5028590;28;20021;-76
2021/09/09 02:11:28;;;;;;;5.95;2.67;;;435.70;1740.80;;;;;;5025238;28;20153;-78
2021/09/09 02:13:55;;;;;;;5.05;2.38;;;435.60;1766.40;;;;;;5018571;28;20051;-78
2021/09/09 02:16:21;;;;;;;4.03;1.88;;;435.60;1766.40;;;;;;5025459;28;20466;-78
2021/09/09 02:18:47;;;;;;;4.60;2.75;;;435.60;1766.40;;;;;;5013745;28;20034;-77
2021/09/09 02:21:13;;;;;;;3.70;2.30;;;435.60;1766.40;;;;;;5018083;28;20486;-78
2021/09/09 02:23:39;;;;;;;4.68;3.05;;;435.60;1766.40;;;;;;5003707;28;20041;-78
2021/09/09 02:26:05;;;;;;;2.60;2.28;;;435.60;1766.40;;;;;;5014383;28;20390;-77
2021/09/09 02:28:32;;;;;;;4.78;2.53;;;435.50;1766.40;;;;;;5014523;28;20144;-77
2021/09/09 02:30:58;;;;;;;5.55;2.50;;;435.50;1766.40;;;;;;5013869;28;20458;-77
2021/09/09 02:33:23;;;;;;;5.25;2.67;;;435.40;1766.40;;;;;;5023588;28;20106;-78
2021/09/09 02:35:49;;;;;;;5.78;2.38;;;435.50;1766.40;;;;;;5034236;28;20053;-78
2021/09/09 02:38:15;;;;;;;3.70;2.30;;;435.50;1766.40;;;;;;5016209;28;20113;-78
2021/09/09 02:40:41;;;;;;;4.57;2.20;;;435.40;1766.40;;;;;;5033459;28;20018;-77
2021/09/09 02:43:07;;;;;;;4.80;2.63;;;435.50;1766.40;;;;;;5015935;28;20094;-77
2021/09/09 02:45:33;;;;;;;6.20;2.53;;;435.40;1766.40;;;;;;5033826;28;20529;-77
2021/09/09 02:47:59;;;;;;;3.35;2.08;;;435.40;1766.40;;;;;;5033519;28;20064;-77
2021/09/09 02:50:24;;;;;;;2.53;2.28;;;435.40;1766.40;;;;;;5033647;28;20053;-78
2021/09/09 02:52:50;;;;;;;5.10;2.92;;;435.40;1766.40;;;;;;5033620;28;20132;-77
2021/09/09 02:55:16;;;;;;;3.35;2.13;;;435.40;1766.40;;;;;;5033552;28;20543;-78
2021/09/09 02:57:43;;;;;;;7.55;2.83;;;435.30;1766.40;;;;;;5034261;28;20025;-79
2021/09/09 03:00:09;;;;;;;5.40;2.75;;;410.40;1817.60;;;;;;5033948;28;20114;-78
2021/09/09 03:02:35;;;;;;;3.85;2.65;;;410.50;1843.20;;;;;;5033834;28;20132;-78
2021/09/09 03:05:01;;;;;;;4.18;2.58;;;410.50;1843.20;;;;;;5033912;28;20508;-78
2021/09/09 03:07:26;;;;;;;6.93;2.78;;;410.40;1843.20;;;;;;5016069;28;20040;-76
2021/09/09 03:09:52;;;;;;;3.83;2.22;;;410.40;1843.20;;;;;;5027035;28;20046;-79
2021/09/09 03:12:18;;;;;;;4.93;3.05;;;410.40;1843.20;;;;;;5033217;28;20029;-78
2021/09/09 03:14:44;;;;;;;3.85;2.05;;;410.50;1843.20;;;;;;5033160;28;20068;-78
2021/09/09 03:17:10;;;;;;;3.83;2.60;;;410.50;1843.20;;;;;;5033657;28;20057;-78
2021/09/09 03:19:37;;;;;;;6.35;2.72;;;410.50;1843.20;;;;;;5033320;28;20106;-78
2021/09/09 03:22:03;;;;;;;4.47;2.47;;;410.40;1843.20;;;;;;5033704;28;20108;-77
2021/09/09 03:24:30;;;;;;;3.53;2.33;;;410.40;1843.20;;;;;;5032229;28;20022;-78
2021/09/09 03:26:55;;;;;;;4.57;2.47;;;410.50;1843.20;;;;;;5033174;28;20025;-79
2021/09/09 03:29:21;;;;;;;5.50;2.00;;;410.50;1843.20;;;;;;5015369;28;20036;-78
2021/09/09 03:31:47;;;;;;;6.25;2.70;;;410.40;1843.20;;;;;;5032516;28;20040;-78
2021/09/09 03:34:12;;;;;;;4.78;2.63;;;410.50;1843.20;;;;;;5032817;28;20049;-77
2021/09/09 03:36:38;;;;;;;5.65;2.63;;;410.40;1868.80;;;;;;5033266;28;20469;-78
2021/09/09 03:39:04;;;;;;;4.60;2.58;;;410.40;1843.20;;;;;;4998888;28;20440;-77
2021/09/09 03:41:30;;;;;;;6.25;3.78;;;410.40;1843.20;;;;;;5033052;28;20009;-79
2021/09/09 03:43:56;;;;;;;4.97;2.95;;;410.40;1843.20;;;;;;5036963;28;20507;-78
2021/09/09 03:46:21;;;;;;;2.67;2.10;;;410.40;1843.20;;;;;;5036867;28;20032;-78
2021/09/09 03:48:47;;;;;;;4.57;2.88;;;410.40;1817.60;;;;;;5037226;28;20476;-78
2021/09/09 03:51:13;;;;;;;4.47;2.63;;;410.40;1817.60;;;;;;5036900;28;20022;-78
2021/09/09 03:53:38;;;;;;;5.55;3.13;;;410.40;1817.60;;;;;;5036663;28;20053;-78
2021/09/09 03:56:04;;;;;;;6.15;2.75;;;410.40;1843.20;;;;;;5037073;28;20525;-77
2021/09/09 03:58:30;;;;;;;3.47;2.35;;;410.40;1843.20;;;;;;5036634;28;20057;-77
2021/09/09 04:00:56;;;;;;;5.20;3.22;;;410.40;1843.20;;;;;;5037161;28;20026;-77
2021/09/09 04:03:23;;;;;;;5.47;3.15;;;410.40;1843.20;;;;;;5036895;28;20040;-78
2021/09/09 04:05:48;;;;;;;3.72;2.80;;;410.30;1843.20;;;;;;5036893;28;20021;-78
2021/09/09 04:08:14;;;;;;;3.65;2.50;;;410.20;1868.80;;;;;;5035542;28;20030;-77
2021/09/09 04:10:40;;;;;;;6.05;2.70;;;410.20;1868.80;;;;;;5036000;28;20405;-78
2021/09/09 04:13:05;;;;;;;6.32;3.10;;;410.20;1894.40;;;;;;5036278;28;20481;-77
2021/09/09 04:15:32;;;;;;;4.68;2.80;;;410.10;1894.40;;;;;;5036310;28;20064;-78
2021/09/09 04:17:58;;;;;;;7.57;2.20;;;410.10;1894.40;;;;;;5035922;28;20025;-78
2021/09/09 04:20:24;;;;;;;3.60;2.22;;;410.10;1894.40;;;;;;5036136;28;20096;-78
2021/09/09 04:22:49;;;;;;;4.15;2.40;;;410.10;1894.40;;;;;;5036111;28;20392;-77
2021/09/09 04:25:16;;;;;;;4.13;2.75;;;410.10;1894.40;;;;;;5035863;28;20030;-78
2021/09/09 04:27:42;;;;;;;5.03;3.10;;;410.10;1894.40;;;;;;5035713;28;20059;-78
2021/09/09 04:30:08;;;;;;;5.13;2.38;;;410.10;1894.40;;;;;;5036184;28;20033;-76
2021/09/09 04:32:34;;;;;;;7.93;3.20;;;410.10;1894.40;;;;;;5034823;28;20044;-78
2021/09/09 04:35:00;;;;;;;3.88;2.55;;;410.00;1920.00;;;;;;5036655;28;20156;-78
2021/09/09 04:37:26;;;;;;;3.00;2.30;;;410.10;1920.00;;;;;;5035110;28;20024;-78
2021/09/09 04:39:52;;;;;;;4.72;2.83;;;410.10;1971.20;;;;;;5018227;28;20112;-78
2021/09/09 04:42:17;;;;;;;3.33;2.33;;;410.10;1945.60;;;;;;5036879;28;20535;-77
2021/09/09 04:44:43;;;;;;;5.78;2.22;;;410.10;1945.60;;;;;;5037506;28;20085;-78
2021/09/09 04:47:09;;;;;;;4.75;2.88;;;410.10;1945.60;;;;;;5017544;28;20026;-78
2021/09/09 04:49:34;;;;;;;4.03;2.45;;;410.10;1920.00;;;;;;5035950;28;20057;-77
2021/09/09 04:52:01;;;;;;;6.13;2.83;;;410.10;1920.00;;;;;;5035608;28;20499;-76
2021/09/09 04:54:27;;;;;;;3.63;2.20;;;410.10;1920.00;;;;;;5033873;28;20057;-77
2021/09/09 04:56:53;;;;;;;4.13;2.42;;;410.20;1920.00;;;;;;5018136;28;20091;-79
2021/09/09 04:59:20;;;;;;;5.50;2.28;;;410.20;1920.00;;;;;;5018229;28;20516;-76
2021/09/09 05:01:45;;;;;;;8.23;3.13;;;410.20;1920.00;;;;;;5035715;28;20042;-77
2021/09/09 05:04:11;;;;;;;7.03;2.80;;;410.20;1920.00;;;;;;5035672;28;20148;-77
2021/09/09 05:06:37;;;;;;;5.90;2.25;;;410.20;1920.00;;;;;;5035507;28;20040;-77
2021/09/09 05:09:02;;;;;;;4.93;2.90;;;410.20;1920.00;;;;;;5035130;28;20433;-77
2021/09/09 05:11:30;;;;;;;7.78;3.08;;;410.20;1920.00;;;;;;5035133;28;20028;-77
2021/09/09 05:13:55;;;;;;;5.25;2.70;;;410.20;1920.00;;;;;;5035626;28;20481;-78
2021/09/09 05:16:21;;;;;;;3.97;2.38;;;410.30;1920.00;;;;;;5035769;28;20032;-78
2021/09/09 05:18:47;;;;;;;4.72;2.22;;;410.40;1920.00;;;;;;5035524;28;20030;-77
2021/09/09 05:21:12;;;;;;;6.18;2.85;;;410.40;1894.40;;;;;;5035635;28;20040;-77
2021/09/09 05:23:38;;;;;;;4.43;2.88;;;410.40;1894.40;;;;;;5035594;28;20022;-77
2021/09/09 05:26:04;;;;;;;3.92;2.65;;;410.40;1894.40;;;;;;5035327;28;20032;-78
2021/09/09 05:28:29;;;;;;;5.85;2.22;;;410.50;1894.40;;;;;;5035564;28;20030;-77
2021/09/09 05:30:55;;;;;;;5.13;2.72;;;410.50;1894.40;;;;;;5035670;28;20021;-77
2021/09/09 05:33:21;;;;;;;6.47;2.45;;;435.20;1894.40;;;;;;5016936;28;20042;-77
2021/09/09 05:35:47;;;;;;;5.53;3.05;;;435.20;1868.80;;;;;;5026442;28;20037;-77
2021/09/09 05:38:14;;;;;;;7.35;2.92;;;435.30;1868.80;;;;;;5018556;28;20105;-77
2021/09/09 05:40:40;;;;;;;9.15;3.88;;;435.30;1868.80;;;;;;5000653;28;20421;-76
2021/09/09 05:43:06;;;;;;;4.90;3.25;;;435.30;1868.80;;;;;;5035328;28;20040;-77
2021/09/09 05:45:31;;;;;;;4.82;2.65;;;435.40;1868.80;;;;;;5034754;28;20100;-77
2021/09/09 05:47:57;;;;;;;4.18;2.55;;;435.40;1868.80;;;;;;5035205;28;20086;-77
2021/09/09 05:50:23;;;;;;;5.50;3.05;;;435.40;1868.80;;;;;;5034600;28;20021;-77
2021/09/09 05:52:50;;;;;;;7.00;3.60;;;435.50;1894.40;;;;;;5035027;28;20053;-77
2021/09/09 05:55:16;;;;;;;4.90;2.33;;;435.30;1894.40;;;;;;5016815;28;20093;-77
2021/09/09 05:57:42;;;;;;;6.25;3.20;;;435.30;1894.40;;;;;;5034558;28;20104;-75
2021/09/09 06:00:10;;;;;;;4.55;2.90;;;435.30;1894.40;;;;;;5016978;28;20460;-77
2021/09/09 06:02:45;;;;;;;8.35;3.00;;;435.30;1920.00;;;;;;5034569;28;20432;-76
2021/09/09 06:05:15;;;;;;;4.78;2.72;;;435.30;1920.00;;;;;;5017112;28;20041;-77
2021/09/09 06:07:41;;;;;;;5.78;3.20;;;435.40;1920.00;;;;;;5039231;28;20044;-78
2021/09/09 06:10:09;;;;;;;4.60;3.20;;;435.40;1920.00;;;;;;5040400;28;20029;-77
2021/09/09 06:12:34;;;;;;;6.30;3.00;;;435.60;1920.00;;;;;;5037723;28;20029;-76
2021/09/09 06:15:00;;;;;;;5.15;2.72;;;435.60;1894.40;;;;;;5038416;28;20030;-77
2021/09/09 06:17:26;;;;;;;5.50;3.42;;;435.80;1920.00;;;;;;5039028;28;20036;-76
2021/09/09 06:19:52;;;;;;;9.20;2.45;;;435.90;1894.40;;;;;;5039108;28;20083;-78
2021/09/09 06:22:18;;;;;;;5.75;3.50;;;436.00;1894.40;;;;;;5038454;28;20025;-77
2021/09/09 06:24:43;;;;;;;5.97;3.75;;;436.10;1868.80;;;;;;5037796;28;20030;-77
2021/09/09 06:27:09;;;;;;;8.40;2.85;;;460.90;1894.40;;;;;;5016740;28;20076;-77
2021/09/09 06:29:35;;;;;;;5.45;3.22;;;461.00;1868.80;;;;;;5033952;28;20038;-78
2021/09/09 06:32:00;;;;;;;6.35;2.80;;;460.90;1843.20;;;;;;5033352;28;20017;-78
2021/09/09 06:34:26;;;;;;;7.82;3.70;;;461.00;1868.80;;;;;;5033589;28;20276;-76
2021/09/09 06:36:53;;;;;;;4.75;2.20;;;461.00;1868.80;;;;;;5032652;28;20049;-77
2021/09/09 06:39:19;;;;;;;5.68;2.92;;;461.10;1868.80;;;;;;5033504;28;20036;-79
2021/09/09 06:41:46;;;;;;;5.20;2.78;;;461.30;1843.20;;;;;;5033784;28;20026;-77
2021/09/09 06:44:13;;;;;;;6.00;3.25;;;461.30;1817.60;;;;;;5016275;28;20072;-79
2021/09/09 06:46:39;;;;;;;6.40;2.50;;;461.40;1843.20;;;;;;5033718;28;20047;-76
2021/09/09 06:49:05;;;;;;;6.07;2.50;;;461.30;1817.60;;;;;;5032685;28;20497;-80
2021/09/09 06:51:32;;;;;;;8.40;2.95;;;461.40;1817.60;;;;;;5034019;28;20030;-77
2021/09/09 06:53:57;;;;;;;6.05;2.78;;;461.60;1792.00;;;;;;5033678;28;20045;-80
2021/09/09 06:56:23;;;;;;;5.80;2.35;;;461.60;1792.00;;;;;;5033704;28;20025;-79
2021/09/09 06:58:49;;;;;;;3.72;2.75;;;461.70;1792.00;;;;;;5033722;28;20060;-80
2021/09/09 07:01:16;;;;;;;5.65;2.58;;;486.40;1766.40;;;;;;5042389;28;20060;-79
2021/09/09 07:03:42;;;;;;;5.90;2.88;;;486.40;1766.40;;;;;;5054140;28;20017;-80
2021/09/09 07:06:08;;;;;;;6.18;3.42;;;486.50;1740.80;;;;;;5026554;28;20481;-78
2021/09/09 07:08:34;;;;;;;6.10;3.00;;;486.50;1740.80;;;;;;5029262;28;20099;-77
2021/09/09 07:11:00;;;;;;;6.22;3.00;;;486.60;1740.80;;;;;;5029958;28;20081;-79
2021/09/09 07:13:28;;;;;;;6.30;2.90;;;486.70;1740.80;;;;;;5030622;28;20460;-78
2021/09/09 07:15:56;;;;;;;5.72;3.00;;;486.80;1715.20;;;;;;5031731;28;20053;-78
2021/09/09 07:18:22;;;;;;;7.70;3.42;;;486.80;1715.20;;;;;;5000758;28;20026;-80
2021/09/09 07:20:47;;;;;;;5.85;2.15;;;486.90;1740.80;;;;;;5008783;28;20084;-79
2021/09/09 07:23:13;;;;;;;4.57;2.40;;;487.00;1715.20;;;;;;5018228;28;20033;-79
2021/09/09 07:25:39;;;;;;;5.45;2.92;;;487.00;1689.60;;;;;;4999954;28;20109;-79
2021/09/09 07:28:05;;;;;;;7.43;3.08;;;487.10;1689.60;;;;;;5014635;28;20101;-79
2021/09/09 07:30:30;;;;;;;5.05;3.08;;;487.10;1689.60;;;;;;5016189;28;20029;-81
2021/09/09 07:32:56;;;;;;;5.07;3.03;;;487.20;1689.60;;;;;;5019102;28;20025;-80
2021/09/09 07:35:22;;;;;;;6.05;3.05;;;487.30;1689.60;;;;;;5036833;28;20040;-82
2021/09/09 07:37:47;;;;;;;6.30;3.35;;;487.30;1664.00;;;;;;5037316;28;20021;-80
2021/09/09 07:40:13;;;;;;;5.53;2.88;;;512.10;1664.00;;;;;;5019323;28;20026;-81
2021/09/09 07:42:39;;;;;;;6.30;2.95;;;512.10;1664.00;;;;;;5019546;28;20530;-81
2021/09/09 07:45:05;;;;;;;6.28;3.42;;;512.10;1664.00;;;;;;5037246;28;20029;-79
2021/09/09 07:47:32;;;;;;;5.85;3.65;;;512.10;1664.00;;;;;;5019204;28;20498;-79
2021/09/09 07:49:58;;;;;;;5.75;3.25;;;512.10;1664.00;;;;;;5018884;28;20033;-79
2021/09/09 07:52:24;;;;;;;6.65;3.45;;;512.10;1664.00;;;;;;5018169;28;20055;-80
2021/09/09 07:54:50;;;;;;;5.72;2.97;;;512.20;1664.00;;;;;;5002234;28;20052;-81
2021/09/09 07:57:15;;;;;;;9.00;3.20;;;512.30;1664.00;;;;;;5019640;28;20030;-79
2021/09/09 07:59:41;;;;;;;6.95;3.75;;;512.40;1638.40;;;;;;5038782;28;20079;-79
2021/09/09 08:02:07;;;;;;;5.57;3.42;;;512.40;1638.40;;;;;;5019016;28;20489;-79
2021/09/09 08:04:32;;;;;;;9.45;4.28;;;512.50;1638.40;;;;;;5036352;28;20072;-80
2021/09/09 08:06:58;;;;;;;9.38;3.83;;;512.50;1612.80;;;;;;5018397;28;20036;-80
2021/09/09 08:09:25;;;;;;;6.25;3.70;;;512.50;1612.80;;;;;;5036161;28;20449;-82
2021/09/09 08:11:51;;;;;;;7.10;3.20;;;512.50;1587.20;;;;;;5018010;28;20042;-79
2021/09/09 08:14:17;;;;;;;5.57;3.10;;;512.50;1612.80;;;;;;5036434;28;20440;-80
2021/09/09 08:16:42;;;;;;;9.63;3.83;;;512.50;1664.00;;;;;;5030024;28;20036;-79
2021/09/09 08:19:08;;;;;;;6.95;3.33;;;512.50;1612.80;;;;;;5017404;28;20152;-77
2021/09/09 08:21:34;;;;;;;8.02;3.75;;;512.50;1612.80;;;;;;5017801;28;20048;-79
2021/09/09 08:24:00;;;;;;;8.02;3.72;;;512.60;1612.80;;;;;;5018138;28;20037;-80
2021/09/09 08:26:25;;;;;;;5.30;3.00;;;512.60;1612.80;;;;;;5036510;28;20013;-80
2021/09/09 08:28:51;;;;;;;5.97;3.30;;;512.60;1612.80;;;;;;5032944;28;20022;-80
2021/09/09 08:31:17;;;;;;;5.82;3.30;;;512.60;1612.80;;;;;;5011538;28;20076;-79
2021/09/09 08:33:43;;;;;;;6.80;3.33;;;512.60;1612.80;;;;;;5028410;28;20034;-80
2021/09/09 08:36:12;;;;;;;6.57;3.90;;;512.70;1612.80;;;;;;5035230;28;20393;-80
2021/09/09 08:38:38;;;;;;;7.03;3.38;;;512.80;1638.40;;;;;;5018367;28;20030;-80
2021/09/09 08:41:04;;;;;;;8.35;4.07;;;512.90;1638.40;;;;;;5025241;28;20025;-79
2021/09/09 08:43:31;;;;;;;6.78;3.38;;;512.90;1612.80;;;;;;5028943;28;20493;-81
2021/09/09 08:45:59;;;;;;;7.65;3.20;;;512.90;1612.80;;;;;;5030838;28;20121;-80
2021/09/09 08:48:26;;;;;;;5.40;2.88;;;512.90;1612.80;;;;;;5031517;28;20029;-81
2021/09/09 08:50:52;;;;;;;8.65;2.72;;;512.90;1587.20;;;;;;5034785;28;20048;-80
2021/09/09 08:53:19;;;;;;;4.93;3.10;;;512.90;1587.20;;;;;;5018442;28;20064;-82
2021/09/09 08:55:45;;;;;;;8.70;3.78;;;512.90;1612.80;;;;;;5034550;28;20443;-81
2021/09/09 08:58:11;;;;;;;3.45;2.33;;;537.70;1638.40;;;;;;5017870;28;20121;-80
2021/09/09 09:00:37;;;;;;;6.68;2.85;;;537.80;1612.80;;;;;;5030545;28;20304;-80
2021/09/09 09:03:03;;;;;;;4.53;2.75;;;537.80;1612.80;;;;;;5030249;28;20033;-81
2021/09/09 09:05:37;;;;;;;3.92;2.50;;;537.90;1612.80;;;;;;5031039;28;20029;-79
2021/09/09 09:08:04;;;;;;;4.32;3.00;;;538.00;1587.20;;;;;;5017324;28;20498;-78
2021/09/09 09:10:32;;;;;;;6.63;2.85;;;538.10;1587.20;;;;;;5031300;28;20060;-78
2021/09/09 09:12:58;;;;;;;6.45;3.13;;;538.20;1587.20;;;;;;5007356;28;20120;-79
2021/09/09 09:15:32;;;;;;;4.95;2.72;;;538.30;1561.60;;;;;;5033622;28;20067;-79
2021/09/09 09:18:06;;;;;;;7.40;3.00;;;538.50;1587.20;;;;;;5017616;28;20021;-79
2021/09/09 09:20:47;;;;;;;5.35;3.40;;;563.20;1587.20;;;;;;5035549;28;20025;-82
2021/09/09 09:23:21;;;;;;;4.45;2.60;;;563.20;1561.60;;;;;;5014281;28;20017;-80
2021/09/09 09:25:58;;;;;;;5.85;3.40;;;563.40;1561.60;;;;;;5012900;28;20037;-80
2021/09/09 09:28:43;;;;;;;5.72;3.38;;;563.50;1561.60;;;;;;5012431;28;20385;-79
2021/09/09 09:31:14;;;;;;;5.97;3.20;;;563.60;1587.20;;;;;;5025632;28;20477;-81
2021/09/09 09:33:44;;;;;;;6.30;3.42;;;563.80;1587.20;;;;;;5004237;28;20112;-80
2021/09/09 09:36:15;;;;;;;5.38;3.03;;;564.00;1561.60;;;;;;5035463;28;20021;-78
2021/09/09 09:38:42;;;;;;;5.20;3.20;;;564.10;1536.00;;;;;;5017497;28;20033;-80
2021/09/09 09:41:09;;;;;;;5.53;2.55;;;588.80;1561.60;;;;;;5016969;28;20389;-81
2021/09/09 09:43:34;;;;;;;4.90;2.70;;;589.00;1510.40;;;;;;5035133;28;20029;-79
2021/09/09 09:46:02;;;;;;;5.78;3.30;;;589.20;1484.80;;;;;;5026546;28;20022;-81
2021/09/09 09:48:35;;;;;;;7.95;3.47;;;589.30;1510.40;;;;;;5035759;28;20029;-79
2021/09/09 09:51:02;;;;;;;5.85;3.10;;;589.50;1459.20;;;;;;5035533;28;20033;-81
2021/09/09 09:53:29;;;;;;;5.38;3.13;;;589.60;1459.20;;;;;;5035481;28;20123;-81
2021/09/09 09:55:55;;;;;;;6.47;3.45;;;589.70;1433.60;;;;;;5034917;28;20030;-81
2021/09/09 09:58:21;;;;;;;6.35;3.20;;;614.40;1433.60;;;;;;5033096;28;20075;-80
2021/09/09 10:00:47;;;;;;;6.47;3.05;;;614.50;1433.60;;;;;;5027498;28;20508;-80
2021/09/09 10:03:13;;;;;;;7.13;3.35;;;614.60;1433.60;;;;;;5031796;28;20120;-79
2021/09/09 10:05:40;;;;;;;6.32;2.83;;;614.70;1433.60;;;;;;5035163;28;20021;-78
2021/09/09 10:08:08;;;;;;;6.88;3.20;;;614.80;1433.60;;;;;;5029713;28;20030;-79
2021/09/09 10:10:34;;;;;;;6.45;3.28;;;614.80;1433.60;;;;;;4999700;28;20089;-80
2021/09/09 10:13:00;;;;;;;10.18;4.05;;;614.90;1433.60;;;;;;5000460;28;20030;-79
2021/09/09 10:15:28;;;;;;;6.68;3.60;;;615.10;1459.20;;;;;;4998925;28;20026;-81
2021/09/09 10:17:55;;;;;;;5.72;3.65;;;615.10;1433.60;;;;;;5015516;28;20492;-79
2021/09/09 10:20:30;;;;;;;6.28;3.65;;;615.30;1433.60;;;;;;4999036;28;20088;-83
2021/09/09 10:23:04;;;;;;;7.10;3.83;;;615.30;1408.00;;;;;;5002706;28;20040;-82
2021/09/09 10:25:40;;;;;;;4.18;3.25;;;640.10;1408.00;;;;;;5026022;28;20022;-82
2021/09/09 10:28:37;;;;;;;8.20;3.88;;;640.20;1408.00;;;;;;5015447;28;20547;-79
2021/09/09 10:31:05;;;;;;;5.28;3.30;;;640.30;1382.40;;;;;;5017394;28;20029;-80
2021/09/09 10:33:32;;;;;;;6.18;4.03;;;640.40;1356.80;;;;;;5029481;28;20037;-82
2021/09/09 10:35:58;;;;;;;6.43;2.95;;;640.50;1382.40;;;;;;5021023;28;20091;-81
2021/09/09 10:38:32;;;;;;;9.88;3.58;;;640.60;1356.80;;;;;;5041481;28;20029;-80
2021/09/09 10:40:59;;;;;;;6.50;3.47;;;640.80;1356.80;;;;;;5044973;28;20040;-81
2021/09/09 10:43:25;;;;;;;5.15;3.25;;;640.90;1356.80;;;;;;5028700;28;20029;-82
2021/09/09 10:46:00;;;;;;;8.88;3.70;;;665.60;1382.40;;;;;;5043161;28;20148;-84
2021/09/09 10:48:28;;;;;;;6.20;4.07;;;665.60;1356.80;;;;;;5022339;28;20044;-80
2021/09/09 10:51:07;;;;;;;5.82;4.20;;;665.70;1331.20;;;;;;5020582;28;20429;-80
2021/09/09 10:53:39;;;;;;;10.95;3.72;;;665.70;1356.80;;;;;;5022805;28;20051;-82
2021/09/09 10:56:27;;;;;;;4.47;2.72;;;665.70;1331.20;;;;;;5033108;28;20025;-81
2021/09/09 10:59:12;;;;;;;7.53;3.08;;;666.00;1356.80;;;;;;5015946;28;20084;-82
2021/09/09 11:01:41;;;;;;;4.45;2.50;;;666.00;1356.80;;;;;;5015217;28;20100;-83
2021/09/09 11:04:23;;;;;;;6.00;2.75;;;666.10;1305.60;;;;;;5033362;28;20025;-82
2021/09/09 11:06:49;;;;;;;9.65;2.60;;;666.40;1305.60;;;;;;5015729;28;20021;-82
2021/09/09 11:09:14;;;;;;;4.28;2.63;;;691.20;1254.40;;;;;;5015363;28;20543;-80
2021/09/09 11:11:46;;;;;;;3.60;2.53;;;691.30;1254.40;;;;;;5015548;28;20378;-81
2021/09/09 11:14:13;;;;;;;4.07;2.53;;;691.60;1228.80;;;;;;5013789;28;20061;-79
2021/09/09 11:16:40;;;;;;;5.72;2.30;;;691.70;1228.80;;;;;;5031741;28;20029;-79
2021/09/09 11:19:09;;;;;;;5.30;2.55;;;691.90;1228.80;;;;;;5033918;28;20049;-80
2021/09/09 11:21:41;;;;;;;4.30;2.47;;;692.10;1177.60;;;;;;5016100;28;20022;-84
2021/09/09 11:24:12;;;;;;;4.88;2.53;;;716.90;1177.60;;;;;;5020145;28;20038;-79
2021/09/09 11:26:40;;;;;;;4.65;2.10;;;717.10;1177.60;;;;;;5033771;28;20068;-79
2021/09/09 11:29:06;;;;;;;4.72;2.67;;;717.20;1203.20;;;;;;5015878;28;20025;-79
2021/09/09 11:31:42;;;;;;;4.22;2.45;;;717.40;1152.00;;;;;;5015241;28;20474;-79
2021/09/09 11:34:08;;;;;;;4.65;2.50;;;717.50;1126.40;;;;;;5032836;28;20037;-79
2021/09/09 11:36:38;;;;;;;4.07;2.60;;;717.40;1126.40;;;;;;5027427;28;20030;-81
2021/09/09 11:39:07;;;;;;;6.20;2.30;;;717.20;1100.80;;;;;;5044871;28;20124;-81
2021/09/09 11:41:34;;;;;;;3.50;2.25;;;717.20;1152.00;;;;;;5036912;28;20112;-80
2021/09/09 11:44:08;;;;;;;4.95;2.25;;;717.20;1152.00;;;;;;5033810;28;20112;-82
2021/09/09 11:46:42;;;;;;;5.43;3.20;;;717.20;1126.40;;;;;;5026595;28;20056;-81
2021/09/09 11:49:10;;;;;;;2.92;1.70;;;717.20;1152.00;;;;;;5044200;28;20032;-83
2021/09/09 11:51:45;;;;;;;3.13;2.25;;;717.40;1126.40;;;;;;5029061;28;20051;-81
2021/09/09 11:54:20;;;;;;;6.68;2.50;;;717.50;1100.80;;;;;;5021881;28;20044;-80
2021/09/09 11:56:50;;;;;;;3.90;2.17;;;717.60;1152.00;;;;;;5038471;28;20040;-80
2021/09/09 11:59:18;;;;;;;5.40;2.08;;;717.70;1075.20;;;;;;5040646;28;20060;-80
2021/09/09 12:01:51;;;;;;;5.78;2.65;;;742.50;1075.20;;;;;;5032083;28;20026;-81
2021/09/09 12:04:21;;;;;;;3.13;2.15;;;742.60;1075.20;;;;;;5031095;28;20051;-78
2021/09/09 12:06:49;;;;;;;3.35;2.28;;;742.50;1100.80;;;;;;5021399;28;20100;-79
2021/09/09 12:09:31;;;;;;;2.80;2.05;;;742.40;1075.20;;;;;;5034388;28;20030;-81
2021/09/09 12:12:05;;;;;;;3.90;2.25;;;717.70;1049.60;;;;;;5025082;28;20048;-79
2021/09/09 12:14:32;;;;;;;2.78;1.60;;;717.70;1075.20;;;;;;5039110;28;20485;-83
2021/09/09 12:17:12;;;;;;;4.00;2.22;;;717.60;1075.20;;;;;;5030314;28;20030;-82
2021/09/09 12:19:57;;;;;;;4.10;2.00;;;717.70;1024.00;;;;;;5026606;28;20072;-82